sensor_id;sensor_type;location;lat;lon;timestamp;P1;durP1;ratioP1;P2;durP2;ratioP2
19778;SDS011;10049;59.306;18.090;2022-11-20T00:00:20;0.20;;;0.20;;
19778;SDS011;10049;59.306;18.090;2022-11-20T00:02:48;1.87;;;0.83;;
19778;SDS011;10049;59.306;18.090;2022-11-20T00:05:17;0.83;;;0.83;;
19778;SDS011;10049;59.306;18.090;2022-11-20T00:07:46;0.63;;;0.60;;
19778;SDS011;10049;59.306;18.090;2022-11-20T00:10:13;0.60;;;0.60;;
19778;SDS011;10049;59.306;18.090;2022-11-20T00:12:42;0.50;;;0.50;;
19778;SDS011;10049;59.306;18.090;2022-11-20T00:15:09;0.30;;;0.30;;
19778;SDS011;10049;59.306;18.090;2022-11-20T00:17:49;1.17;;;0.80;;
19778;SDS011;10049;59.306;18.090;2022-11-20T00:20:18;1.70;;;1.13;;
19778;SDS011;10049;59.306;18.090;2022-11-20T00:22:54;1.00;;;0.90;;
19778;SDS011;10049;59.306;18.090;2022-11-20T00:25:22;1.50;;;1.20;;
19778;SDS011;10049;59.306;18.090;2022-11-20T00:28:12;0.73;;;0.73;;
19778;SDS011;10049;59.306;18.090;2022-11-20T00:30:41;0.77;;;0.77;;
19778;SDS011;10049;59.306;18.090;2022-11-20T00:33:10;1.80;;;1.10;;
19778;SDS011;10049;59.306;18.090;2022-11-20T00:35:41;1.20;;;1.07;;
19778;SDS011;10049;59.306;18.090;2022-11-20T00:38:08;1.20;;;0.90;;
19778;SDS011;10049;59.306;18.090;2022-11-20T00:40:35;1.60;;;1.00;;
19778;SDS011;10049;59.306;18.090;2022-11-20T00:43:02;1.83;;;0.90;;
19778;SDS011;10049;59.306;18.090;2022-11-20T00:45:33;1.23;;;0.83;;
19778;SDS011;10049;59.306;18.090;2022-11-20T00:48:00;1.63;;;0.97;;
19778;SDS011;10049;59.306;18.090;2022-11-20T00:50:27;1.47;;;1.10;;
19778;SDS011;10049;59.306;18.090;2022-11-20T00:52:54;1.20;;;1.10;;
19778;SDS011;10049;59.306;18.090;2022-11-20T00:55:22;1.87;;;0.80;;
19778;SDS011;10049;59.306;18.090;2022-11-20T00:57:49;1.20;;;1.10;;
19778;SDS011;10049;59.306;18.090;2022-11-20T01:00:16;1.27;;;1.17;;
19778;SDS011;10049;59.306;18.090;2022-11-20T01:02:45;1.10;;;0.97;;
19778;SDS011;10049;59.306;18.090;2022-11-20T01:05:13;1.83;;;1.30;;
19778;SDS011;10049;59.306;18.090;2022-11-20T01:07:41;1.30;;;1.20;;
19778;SDS011;10049;59.306;18.090;2022-11-20T01:10:08;2.63;;;1.60;;
19778;SDS011;10049;59.306;18.090;2022-11-20T01:12:35;3.83;;;1.20;;
19778;SDS011;10049;59.306;18.090;2022-11-20T01:15:03;1.00;;;0.80;;
19778;SDS011;10049;59.306;18.090;2022-11-20T01:17:31;1.93;;;1.17;;
19778;SDS011;10049;59.306;18.090;2022-11-20T01:20:01;0.87;;;0.60;;
19778;SDS011;10049;59.306;18.090;2022-11-20T01:22:29;1.30;;;1.20;;
19778;SDS011;10049;59.306;18.090;2022-11-20T01:24:56;0.67;;;0.67;;
19778;SDS011;10049;59.306;18.090;2022-11-20T01:27:24;1.17;;;1.07;;
19778;SDS011;10049;59.306;18.090;2022-11-20T01:29:51;0.97;;;0.87;;
19778;SDS011;10049;59.306;18.090;2022-11-20T01:32:20;1.00;;;0.90;;
19778;SDS011;10049;59.306;18.090;2022-11-20T01:34:48;0.63;;;0.63;;
19778;SDS011;10049;59.306;18.090;2022-11-20T01:37:17;1.40;;;1.30;;
19778;SDS011;10049;59.306;18.090;2022-11-20T01:39:44;1.17;;;1.07;;
19778;SDS011;10049;59.306;18.090;2022-11-20T01:42:11;2.20;;;1.17;;
19778;SDS011;10049;59.306;18.090;2022-11-20T01:44:56;3.53;;;1.10;;
19778;SDS011;10049;59.306;18.090;2022-11-20T01:47:27;2.87;;;1.37;;
19778;SDS011;10049;59.306;18.090;2022-11-20T01:50:03;1.47;;;1.20;;
19778;SDS011;10049;59.306;18.090;2022-11-20T01:52:38;1.80;;;1.30;;
19778;SDS011;10049;59.306;18.090;2022-11-20T01:55:08;1.30;;;1.20;;
19778;SDS011;10049;59.306;18.090;2022-11-20T01:57:38;1.17;;;1.00;;
19778;SDS011;10049;59.306;18.090;2022-11-20T02:00:07;1.10;;;0.70;;
19778;SDS011;10049;59.306;18.090;2022-11-20T02:02:36;1.37;;;0.87;;
19778;SDS011;10049;59.306;18.090;2022-11-20T02:05:09;1.07;;;0.80;;
19778;SDS011;10049;59.306;18.090;2022-11-20T02:07:45;0.73;;;0.73;;
19778;SDS011;10049;59.306;18.090;2022-11-20T02:10:14;1.40;;;1.17;;
19778;SDS011;10049;59.306;18.090;2022-11-20T02:12:43;1.23;;;1.03;;
19778;SDS011;10049;59.306;18.090;2022-11-20T02:15:28;1.47;;;0.90;;
19778;SDS011;10049;59.306;18.090;2022-11-20T02:17:55;0.60;;;0.60;;
19778;SDS011;10049;59.306;18.090;2022-11-20T02:20:23;1.40;;;0.93;;
19778;SDS011;10049;59.306;18.090;2022-11-20T02:22:53;1.00;;;1.00;;
19778;SDS011;10049;59.306;18.090;2022-11-20T02:25:26;1.50;;;1.07;;
19778;SDS011;10049;59.306;18.090;2022-11-20T02:27:58;1.67;;;1.30;;
19778;SDS011;10049;59.306;18.090;2022-11-20T02:30:25;0.70;;;0.70;;
19778;SDS011;10049;59.306;18.090;2022-11-20T02:32:52;1.03;;;0.93;;
19778;SDS011;10049;59.306;18.090;2022-11-20T02:35:39;1.10;;;1.00;;
19778;SDS011;10049;59.306;18.090;2022-11-20T02:38:08;1.20;;;1.10;;
19778;SDS011;10049;59.306;18.090;2022-11-20T02:40:37;0.80;;;0.70;;
19778;SDS011;10049;59.306;18.090;2022-11-20T02:43:04;0.80;;;0.80;;
19778;SDS011;10049;59.306;18.090;2022-11-20T02:45:31;3.47;;;0.83;;
19778;SDS011;10049;59.306;18.090;2022-11-20T02:47:58;2.40;;;1.37;;
19778;SDS011;10049;59.306;18.090;2022-11-20T02:50:28;1.53;;;1.13;;
19778;SDS011;10049;59.306;18.090;2022-11-20T02:52:55;0.37;;;0.37;;
19778;SDS011;10049;59.306;18.090;2022-11-20T02:55:22;1.00;;;0.93;;
19778;SDS011;10049;59.306;18.090;2022-11-20T02:57:51;1.80;;;1.17;;
19778;SDS011;10049;59.306;18.090;2022-11-20T03:00:18;1.43;;;1.10;;
19778;SDS011;10049;59.306;18.090;2022-11-20T03:02:45;1.70;;;1.27;;
19778;SDS011;10049;59.306;18.090;2022-11-20T03:05:12;1.87;;;1.03;;
19778;SDS011;10049;59.306;18.090;2022-11-20T03:07:40;2.27;;;1.27;;
19778;SDS011;10049;59.306;18.090;2022-11-20T03:10:07;1.43;;;0.70;;
19778;SDS011;10049;59.306;18.090;2022-11-20T03:12:35;0.80;;;0.80;;
19778;SDS011;10049;59.306;18.090;2022-11-20T03:15:04;1.20;;;1.10;;
19778;SDS011;10049;59.306;18.090;2022-11-20T03:17:39;1.43;;;0.70;;
19778;SDS011;10049;59.306;18.090;2022-11-20T03:20:08;0.97;;;0.80;;
19778;SDS011;10049;59.306;18.090;2022-11-20T03:22:36;0.80;;;0.80;;
19778;SDS011;10049;59.306;18.090;2022-11-20T03:25:04;1.60;;;0.90;;
19778;SDS011;10049;59.306;18.090;2022-11-20T03:27:33;0.80;;;0.80;;
19778;SDS011;10049;59.306;18.090;2022-11-20T03:30:05;1.13;;;0.90;;
19778;SDS011;10049;59.306;18.090;2022-11-20T03:32:33;3.83;;;1.23;;
19778;SDS011;10049;59.306;18.090;2022-11-20T03:35:02;1.87;;;0.87;;
19778;SDS011;10049;59.306;18.090;2022-11-20T03:37:29;1.10;;;1.00;;
19778;SDS011;10049;59.306;18.090;2022-11-20T03:39:57;1.03;;;0.80;;
19778;SDS011;10049;59.306;18.090;2022-11-20T03:42:24;0.50;;;0.50;;
19778;SDS011;10049;59.306;18.090;2022-11-20T03:45:19;0.70;;;0.70;;
19778;SDS011;10049;59.306;18.090;2022-11-20T03:47:46;0.53;;;0.53;;
19778;SDS011;10049;59.306;18.090;2022-11-20T03:50:13;0.77;;;0.70;;
19778;SDS011;10049;59.306;18.090;2022-11-20T03:52:41;1.13;;;0.80;;
19778;SDS011;10049;59.306;18.090;2022-11-20T03:55:08;0.60;;;0.60;;
19778;SDS011;10049;59.306;18.090;2022-11-20T03:57:35;1.77;;;0.90;;
19778;SDS011;10049;59.306;18.090;2022-11-20T04:00:05;0.60;;;0.60;;
19778;SDS011;10049;59.306;18.090;2022-11-20T04:02:34;0.80;;;0.73;;
19778;SDS011;10049;59.306;18.090;2022-11-20T04:05:01;2.93;;;0.60;;
19778;SDS011;10049;59.306;18.090;2022-11-20T04:07:31;0.40;;;0.40;;
19778;SDS011;10049;59.306;18.090;2022-11-20T04:10:00;0.63;;;0.60;;
19778;SDS011;10049;59.306;18.090;2022-11-20T04:12:27;1.50;;;0.60;;
19778;SDS011;10049;59.306;18.090;2022-11-20T04:14:58;0.80;;;0.70;;
19778;SDS011;10049;59.306;18.090;2022-11-20T04:17:25;0.60;;;0.60;;
19778;SDS011;10049;59.306;18.090;2022-11-20T04:19:54;0.73;;;0.73;;
19778;SDS011;10049;59.306;18.090;2022-11-20T04:22:21;0.63;;;0.63;;
19778;SDS011;10049;59.306;18.090;2022-11-20T04:24:48;1.63;;;0.90;;
19778;SDS011;10049;59.306;18.090;2022-11-20T04:27:15;0.60;;;0.60;;
19778;SDS011;10049;59.306;18.090;2022-11-20T04:29:42;0.97;;;0.77;;
19778;SDS011;10049;59.306;18.090;2022-11-20T04:32:09;1.17;;;0.80;;
19778;SDS011;10049;59.306;18.090;2022-11-20T04:34:36;0.70;;;0.60;;
19778;SDS011;10049;59.306;18.090;2022-11-20T04:37:05;0.60;;;0.60;;
19778;SDS011;10049;59.306;18.090;2022-11-20T04:39:32;1.17;;;0.67;;
19778;SDS011;10049;59.306;18.090;2022-11-20T04:42:01;0.70;;;0.70;;
19778;SDS011;10049;59.306;18.090;2022-11-20T04:44:45;1.10;;;0.70;;
19778;SDS011;10049;59.306;18.090;2022-11-20T04:47:12;1.70;;;0.60;;
19778;SDS011;10049;59.306;18.090;2022-11-20T04:49:39;0.40;;;0.40;;
19778;SDS011;10049;59.306;18.090;2022-11-20T04:52:08;0.30;;;0.30;;
19778;SDS011;10049;59.306;18.090;2022-11-20T04:54:37;0.60;;;0.57;;
19778;SDS011;10049;59.306;18.090;2022-11-20T04:57:06;0.80;;;0.60;;
19778;SDS011;10049;59.306;18.090;2022-11-20T04:59:33;0.63;;;0.53;;
19778;SDS011;10049;59.306;18.090;2022-11-20T05:02:00;0.70;;;0.70;;
19778;SDS011;10049;59.306;18.090;2022-11-20T05:04:27;0.80;;;0.60;;
19778;SDS011;10049;59.306;18.090;2022-11-20T05:06:57;0.60;;;0.60;;
19778;SDS011;10049;59.306;18.090;2022-11-20T05:09:28;0.50;;;0.50;;
19778;SDS011;10049;59.306;18.090;2022-11-20T05:11:56;0.67;;;0.67;;
19778;SDS011;10049;59.306;18.090;2022-11-20T05:14:26;0.97;;;0.50;;
19778;SDS011;10049;59.306;18.090;2022-11-20T05:16:53;1.53;;;0.70;;
19778;SDS011;10049;59.306;18.090;2022-11-20T05:19:21;0.50;;;0.50;;
19778;SDS011;10049;59.306;18.090;2022-11-20T05:21:49;0.67;;;0.67;;
19778;SDS011;10049;59.306;18.090;2022-11-20T05:24:17;0.50;;;0.50;;
19778;SDS011;10049;59.306;18.090;2022-11-20T05:26:46;0.70;;;0.70;;
19778;SDS011;10049;59.306;18.090;2022-11-20T05:29:16;1.23;;;0.67;;
19778;SDS011;10049;59.306;18.090;2022-11-20T05:31:43;1.23;;;0.63;;
19778;SDS011;10049;59.306;18.090;2022-11-20T05:34:11;0.77;;;0.70;;
19778;SDS011;10049;59.306;18.090;2022-11-20T05:36:40;0.80;;;0.57;;
19778;SDS011;10049;59.306;18.090;2022-11-20T05:39:08;0.50;;;0.50;;
19778;SDS011;10049;59.306;18.090;2022-11-20T05:41:36;0.70;;;0.70;;
19778;SDS011;10049;59.306;18.090;2022-11-20T05:44:05;0.80;;;0.80;;
19778;SDS011;10049;59.306;18.090;2022-11-20T05:46:35;2.67;;;0.60;;
19778;SDS011;10049;59.306;18.090;2022-11-20T05:49:05;0.90;;;0.50;;
19778;SDS011;10049;59.306;18.090;2022-11-20T05:51:33;0.77;;;0.77;;
19778;SDS011;10049;59.306;18.090;2022-11-20T05:54:02;0.57;;;0.50;;
19778;SDS011;10049;59.306;18.090;2022-11-20T05:56:29;0.77;;;0.57;;
19778;SDS011;10049;59.306;18.090;2022-11-20T05:58:57;0.70;;;0.60;;
19778;SDS011;10049;59.306;18.090;2022-11-20T06:01:30;0.60;;;0.60;;
19778;SDS011;10049;59.306;18.090;2022-11-20T06:03:59;1.13;;;0.70;;
19778;SDS011;10049;59.306;18.090;2022-11-20T06:06:30;0.77;;;0.77;;
19778;SDS011;10049;59.306;18.090;2022-11-20T06:08:58;0.57;;;0.50;;
19778;SDS011;10049;59.306;18.090;2022-11-20T06:11:25;0.77;;;0.70;;
19778;SDS011;10049;59.306;18.090;2022-11-20T06:13:53;0.80;;;0.70;;
19778;SDS011;10049;59.306;18.090;2022-11-20T06:16:24;0.50;;;0.47;;
19778;SDS011;10049;59.306;18.090;2022-11-20T06:18:53;1.20;;;0.83;;
19778;SDS011;10049;59.306;18.090;2022-11-20T06:21:21;0.60;;;0.60;;
19778;SDS011;10049;59.306;18.090;2022-11-20T06:23:52;0.60;;;0.60;;
19778;SDS011;10049;59.306;18.090;2022-11-20T06:26:22;1.73;;;0.97;;
19778;SDS011;10049;59.306;18.090;2022-11-20T06:28:50;0.70;;;0.70;;
19778;SDS011;10049;59.306;18.090;2022-11-20T06:31:19;0.60;;;0.60;;
19778;SDS011;10049;59.306;18.090;2022-11-20T06:33:46;0.83;;;0.60;;
19778;SDS011;10049;59.306;18.090;2022-11-20T06:36:22;0.93;;;0.63;;
19778;SDS011;10049;59.306;18.090;2022-11-20T06:38:49;0.70;;;0.70;;
19778;SDS011;10049;59.306;18.090;2022-11-20T06:41:20;0.33;;;0.33;;
19778;SDS011;10049;59.306;18.090;2022-11-20T06:43:49;0.70;;;0.70;;
19778;SDS011;10049;59.306;18.090;2022-11-20T06:46:30;0.73;;;0.73;;
19778;SDS011;10049;59.306;18.090;2022-11-20T06:48:59;1.67;;;0.70;;
19778;SDS011;10049;59.306;18.090;2022-11-20T06:51:29;0.80;;;0.60;;
19778;SDS011;10049;59.306;18.090;2022-11-20T06:53:59;2.43;;;0.70;;
19778;SDS011;10049;59.306;18.090;2022-11-20T06:56:30;0.87;;;0.70;;
19778;SDS011;10049;59.306;18.090;2022-11-20T06:59:11;0.77;;;0.50;;
19778;SDS011;10049;59.306;18.090;2022-11-20T07:01:39;0.60;;;0.60;;
19778;SDS011;10049;59.306;18.090;2022-11-20T07:04:07;0.53;;;0.53;;
19778;SDS011;10049;59.306;18.090;2022-11-20T07:06:38;1.10;;;0.80;;
19778;SDS011;10049;59.306;18.090;2022-11-20T07:09:06;0.50;;;0.50;;
19778;SDS011;10049;59.306;18.090;2022-11-20T07:11:36;0.40;;;0.40;;
19778;SDS011;10049;59.306;18.090;2022-11-20T07:14:03;0.83;;;0.77;;
19778;SDS011;10049;59.306;18.090;2022-11-20T07:16:32;0.57;;;0.57;;
19778;SDS011;10049;59.306;18.090;2022-11-20T07:19:02;0.60;;;0.60;;
19778;SDS011;10049;59.306;18.090;2022-11-20T07:21:30;4.33;;;0.50;;
19778;SDS011;10049;59.306;18.090;2022-11-20T07:24:02;0.73;;;0.63;;
19778;SDS011;10049;59.306;18.090;2022-11-20T07:26:33;0.50;;;0.50;;
19778;SDS011;10049;59.306;18.090;2022-11-20T07:29:03;0.97;;;0.50;;
19778;SDS011;10049;59.306;18.090;2022-11-20T07:31:30;0.30;;;0.30;;
19778;SDS011;10049;59.306;18.090;2022-11-20T07:33:57;0.50;;;0.50;;
19778;SDS011;10049;59.306;18.090;2022-11-20T07:36:26;0.50;;;0.50;;
19778;SDS011;10049;59.306;18.090;2022-11-20T07:38:53;0.50;;;0.50;;
19778;SDS011;10049;59.306;18.090;2022-11-20T07:41:23;0.70;;;0.50;;
19778;SDS011;10049;59.306;18.090;2022-11-20T07:43:53;0.40;;;0.40;;
19778;SDS011;10049;59.306;18.090;2022-11-20T07:46:23;2.17;;;0.73;;
19778;SDS011;10049;59.306;18.090;2022-11-20T07:48:53;0.93;;;0.50;;
19778;SDS011;10049;59.306;18.090;2022-11-20T07:51:23;0.60;;;0.60;;
19778;SDS011;10049;59.306;18.090;2022-11-20T07:53:52;0.50;;;0.50;;
19778;SDS011;10049;59.306;18.090;2022-11-20T07:56:24;0.50;;;0.50;;
19778;SDS011;10049;59.306;18.090;2022-11-20T07:58:54;0.73;;;0.60;;
19778;SDS011;10049;59.306;18.090;2022-11-20T08:01:23;0.40;;;0.40;;
19778;SDS011;10049;59.306;18.090;2022-11-20T08:03:55;0.40;;;0.40;;
19778;SDS011;10049;59.306;18.090;2022-11-20T08:06:26;0.33;;;0.33;;
19778;SDS011;10049;59.306;18.090;2022-11-20T08:08:55;0.97;;;0.57;;
19778;SDS011;10049;59.306;18.090;2022-11-20T08:11:24;1.10;;;0.60;;
19778;SDS011;10049;59.306;18.090;2022-11-20T08:14:09;0.30;;;0.30;;
19778;SDS011;10049;59.306;18.090;2022-11-20T08:16:41;0.60;;;0.40;;
19778;SDS011;10049;59.306;18.090;2022-11-20T08:19:10;0.40;;;0.40;;
19778;SDS011;10049;59.306;18.090;2022-11-20T08:21:39;0.30;;;0.30;;
19778;SDS011;10049;59.306;18.090;2022-11-20T08:24:07;0.37;;;0.37;;
19778;SDS011;10049;59.306;18.090;2022-11-20T08:26:37;0.87;;;0.43;;
19778;SDS011;10049;59.306;18.090;2022-11-20T08:29:05;1.57;;;0.60;;
19778;SDS011;10049;59.306;18.090;2022-11-20T08:31:33;0.50;;;0.50;;
19778;SDS011;10049;59.306;18.090;2022-11-20T08:34:01;0.40;;;0.40;;
19778;SDS011;10049;59.306;18.090;2022-11-20T08:36:32;0.27;;;0.27;;
19778;SDS011;10049;59.306;18.090;2022-11-20T08:39:01;1.07;;;0.47;;
19778;SDS011;10049;59.306;18.090;2022-11-20T08:41:28;0.60;;;0.50;;
19778;SDS011;10049;59.306;18.090;2022-11-20T08:44:00;0.30;;;0.30;;
19778;SDS011;10049;59.306;18.090;2022-11-20T08:46:31;0.50;;;0.50;;
19778;SDS011;10049;59.306;18.090;2022-11-20T08:48:59;0.57;;;0.50;;
19778;SDS011;10049;59.306;18.090;2022-11-20T08:51:28;0.40;;;0.40;;
19778;SDS011;10049;59.306;18.090;2022-11-20T08:53:55;0.90;;;0.70;;
19778;SDS011;10049;59.306;18.090;2022-11-20T08:56:22;0.37;;;0.37;;
19778;SDS011;10049;59.306;18.090;2022-11-20T08:58:51;0.40;;;0.40;;
19778;SDS011;10049;59.306;18.090;2022-11-20T09:01:28;0.50;;;0.50;;
19778;SDS011;10049;59.306;18.090;2022-11-20T09:03:57;0.40;;;0.40;;
19778;SDS011;10049;59.306;18.090;2022-11-20T09:06:25;0.40;;;0.40;;
19778;SDS011;10049;59.306;18.090;2022-11-20T09:08:54;0.50;;;0.50;;
19778;SDS011;10049;59.306;18.090;2022-11-20T09:11:23;0.40;;;0.40;;
19778;SDS011;10049;59.306;18.090;2022-11-20T09:13:53;0.73;;;0.50;;
19778;SDS011;10049;59.306;18.090;2022-11-20T09:16:21;0.50;;;0.40;;
19778;SDS011;10049;59.306;18.090;2022-11-20T09:18:51;0.50;;;0.50;;
19778;SDS011;10049;59.306;18.090;2022-11-20T09:21:19;0.73;;;0.60;;
19778;SDS011;10049;59.306;18.090;2022-11-20T09:23:47;1.00;;;0.90;;
19778;SDS011;10049;59.306;18.090;2022-11-20T09:26:16;0.73;;;0.50;;
19778;SDS011;10049;59.306;18.090;2022-11-20T09:28:44;0.53;;;0.40;;
19778;SDS011;10049;59.306;18.090;2022-11-20T09:31:16;0.53;;;0.40;;
19778;SDS011;10049;59.306;18.090;2022-11-20T09:33:46;0.37;;;0.37;;
19778;SDS011;10049;59.306;18.090;2022-11-20T09:36:16;5.43;;;0.50;;
19778;SDS011;10049;59.306;18.090;2022-11-20T09:38:45;0.60;;;0.60;;
19778;SDS011;10049;59.306;18.090;2022-11-20T09:41:19;0.60;;;0.47;;
19778;SDS011;10049;59.306;18.090;2022-11-20T09:43:50;0.50;;;0.50;;
19778;SDS011;10049;59.306;18.090;2022-11-20T09:46:20;1.13;;;0.50;;
19778;SDS011;10049;59.306;18.090;2022-11-20T09:48:54;0.50;;;0.50;;
19778;SDS011;10049;59.306;18.090;2022-11-20T09:51:30;0.43;;;0.43;;
19778;SDS011;10049;59.306;18.090;2022-11-20T09:54:03;0.40;;;0.40;;
19778;SDS011;10049;59.306;18.090;2022-11-20T09:56:33;0.30;;;0.30;;
19778;SDS011;10049;59.306;18.090;2022-11-20T09:59:02;0.50;;;0.50;;
19778;SDS011;10049;59.306;18.090;2022-11-20T10:01:31;0.30;;;0.30;;
19778;SDS011;10049;59.306;18.090;2022-11-20T10:04:00;0.33;;;0.33;;
19778;SDS011;10049;59.306;18.090;2022-11-20T10:06:31;0.33;;;0.33;;
19778;SDS011;10049;59.306;18.090;2022-11-20T10:09:01;0.23;;;0.23;;
19778;SDS011;10049;59.306;18.090;2022-11-20T10:11:33;0.60;;;0.60;;
19778;SDS011;10049;59.306;18.090;2022-11-20T10:14:10;1.30;;;0.37;;
19778;SDS011;10049;59.306;18.090;2022-11-20T10:16:41;0.33;;;0.33;;
19778;SDS011;10049;59.306;18.090;2022-11-20T10:19:14;0.30;;;0.30;;
19778;SDS011;10049;59.306;18.090;2022-11-20T10:21:55;0.27;;;0.27;;
19778;SDS011;10049;59.306;18.090;2022-11-20T10:27:27;0.30;;;0.30;;
19778;SDS011;10049;59.306;18.090;2022-11-20T10:29:59;0.30;;;0.30;;
19778;SDS011;10049;59.306;18.090;2022-11-20T10:32:30;0.73;;;0.40;;
19778;SDS011;10049;59.306;18.090;2022-11-20T10:34:59;1.07;;;0.53;;
19778;SDS011;10049;59.306;18.090;2022-11-20T10:37:30;1.50;;;0.40;;
19778;SDS011;10049;59.306;18.090;2022-11-20T10:40:00;0.40;;;0.40;;
19778;SDS011;10049;59.306;18.090;2022-11-20T10:42:29;0.30;;;0.30;;
19778;SDS011;10049;59.306;18.090;2022-11-20T10:45:09;0.30;;;0.30;;
19778;SDS011;10049;59.306;18.090;2022-11-20T10:47:38;0.93;;;0.30;;
19778;SDS011;10049;59.306;18.090;2022-11-20T10:50:08;0.50;;;0.30;;
19778;SDS011;10049;59.306;18.090;2022-11-20T10:52:41;0.30;;;0.30;;
19778;SDS011;10049;59.306;18.090;2022-11-20T10:55:16;0.83;;;0.50;;
19778;SDS011;10049;59.306;18.090;2022-11-20T10:57:49;0.30;;;0.30;;
19778;SDS011;10049;59.306;18.090;2022-11-20T11:00:18;0.63;;;0.50;;
19778;SDS011;10049;59.306;18.090;2022-11-20T11:02:46;0.50;;;0.50;;
19778;SDS011;10049;59.306;18.090;2022-11-20T11:05:22;0.30;;;0.30;;
19778;SDS011;10049;59.306;18.090;2022-11-20T11:07:52;0.30;;;0.30;;
19778;SDS011;10049;59.306;18.090;2022-11-20T11:10:22;1.67;;;0.40;;
19778;SDS011;10049;59.306;18.090;2022-11-20T11:12:50;0.47;;;0.40;;
19778;SDS011;10049;59.306;18.090;2022-11-20T11:15:24;0.30;;;0.30;;
19778;SDS011;10049;59.306;18.090;2022-11-20T11:17:53;0.30;;;0.30;;
19778;SDS011;10049;59.306;18.090;2022-11-20T11:20:21;0.30;;;0.30;;
19778;SDS011;10049;59.306;18.090;2022-11-20T11:22:49;0.43;;;0.43;;
19778;SDS011;10049;59.306;18.090;2022-11-20T11:25:30;0.30;;;0.30;;
19778;SDS011;10049;59.306;18.090;2022-11-20T11:27:59;0.30;;;0.30;;
19778;SDS011;10049;59.306;18.090;2022-11-20T11:30:28;0.60;;;0.40;;
19778;SDS011;10049;59.306;18.090;2022-11-20T11:33:03;0.40;;;0.40;;
19778;SDS011;10049;59.306;18.090;2022-11-20T11:35:32;0.40;;;0.40;;
19778;SDS011;10049;59.306;18.090;2022-11-20T11:38:03;0.30;;;0.30;;
19778;SDS011;10049;59.306;18.090;2022-11-20T11:40:34;0.40;;;0.40;;
19778;SDS011;10049;59.306;18.090;2022-11-20T11:43:05;0.33;;;0.33;;
19778;SDS011;10049;59.306;18.090;2022-11-20T11:45:54;0.27;;;0.27;;
19778;SDS011;10049;59.306;18.090;2022-11-20T11:48:20;0.40;;;0.40;;
19778;SDS011;10049;59.306;18.090;2022-11-20T11:50:49;0.47;;;0.40;;
19778;SDS011;10049;59.306;18.090;2022-11-20T11:53:17;0.30;;;0.30;;
19778;SDS011;10049;59.306;18.090;2022-11-20T11:55:49;2.20;;;0.50;;
19778;SDS011;10049;59.306;18.090;2022-11-20T11:58:24;0.53;;;0.53;;
19778;SDS011;10049;59.306;18.090;2022-11-20T12:00:58;0.40;;;0.40;;
19778;SDS011;10049;59.306;18.090;2022-11-20T12:03:28;0.63;;;0.60;;
19778;SDS011;10049;59.306;18.090;2022-11-20T12:05:57;0.30;;;0.30;;
19778;SDS011;10049;59.306;18.090;2022-11-20T12:08:30;0.60;;;0.40;;
19778;SDS011;10049;59.306;18.090;2022-11-20T12:11:03;0.67;;;0.50;;
19778;SDS011;10049;59.306;18.090;2022-11-20T12:13:44;0.37;;;0.37;;
19778;SDS011;10049;59.306;18.090;2022-11-20T12:16:24;0.50;;;0.50;;
19778;SDS011;10049;59.306;18.090;2022-11-20T12:18:52;0.30;;;0.30;;
19778;SDS011;10049;59.306;18.090;2022-11-20T12:21:20;0.67;;;0.30;;
19778;SDS011;10049;59.306;18.090;2022-11-20T12:23:54;4.13;;;0.40;;
19778;SDS011;10049;59.306;18.090;2022-11-20T12:26:27;0.77;;;0.50;;
19778;SDS011;10049;59.306;18.090;2022-11-20T12:29:01;0.70;;;0.40;;
19778;SDS011;10049;59.306;18.090;2022-11-20T12:31:37;0.57;;;0.57;;
19778;SDS011;10049;59.306;18.090;2022-11-20T12:34:20;1.00;;;0.60;;
19778;SDS011;10049;59.306;18.090;2022-11-20T12:36:52;0.57;;;0.53;;
19778;SDS011;10049;59.306;18.090;2022-11-20T12:39:31;1.27;;;0.70;;
19778;SDS011;10049;59.306;18.090;2022-11-20T12:45:38;1.80;;;0.60;;
19778;SDS011;10049;59.306;18.090;2022-11-20T12:48:16;1.83;;;0.63;;
19778;SDS011;10049;59.306;18.090;2022-11-20T12:50:48;1.50;;;0.70;;
19778;SDS011;10049;59.306;18.090;2022-11-20T12:53:22;0.73;;;0.73;;
19778;SDS011;10049;59.306;18.090;2022-11-20T12:55:53;0.60;;;0.60;;
19778;SDS011;10049;59.306;18.090;2022-11-20T12:58:25;1.20;;;0.67;;
19778;SDS011;10049;59.306;18.090;2022-11-20T13:00:56;0.40;;;0.40;;
19778;SDS011;10049;59.306;18.090;2022-11-20T13:03:32;0.83;;;0.60;;
19778;SDS011;10049;59.306;18.090;2022-11-20T13:06:05;1.00;;;0.80;;
19778;SDS011;10049;59.306;18.090;2022-11-20T13:08:34;3.53;;;0.70;;
19778;SDS011;10049;59.306;18.090;2022-11-20T13:11:03;1.80;;;1.00;;
19778;SDS011;10049;59.306;18.090;2022-11-20T13:13:35;0.63;;;0.63;;
19778;SDS011;10049;59.306;18.090;2022-11-20T13:16:08;0.80;;;0.50;;
19778;SDS011;10049;59.306;18.090;2022-11-20T13:18:38;0.50;;;0.50;;
19778;SDS011;10049;59.306;18.090;2022-11-20T13:21:14;0.40;;;0.40;;
19778;SDS011;10049;59.306;18.090;2022-11-20T13:23:41;0.20;;;0.20;;
19778;SDS011;10049;59.306;18.090;2022-11-20T13:26:14;0.20;;;0.20;;
19778;SDS011;10049;59.306;18.090;2022-11-20T13:28:43;0.53;;;0.50;;
19778;SDS011;10049;59.306;18.090;2022-11-20T13:34:01;0.40;;;0.40;;
19778;SDS011;10049;59.306;18.090;2022-11-20T13:36:29;0.97;;;0.80;;
19778;SDS011;10049;59.306;18.090;2022-11-20T13:38:57;0.67;;;0.40;;
19778;SDS011;10049;59.306;18.090;2022-11-20T13:41:25;2.83;;;0.63;;
19778;SDS011;10049;59.306;18.090;2022-11-20T13:43:59;0.40;;;0.30;;
19778;SDS011;10049;59.306;18.090;2022-11-20T13:46:35;0.20;;;0.20;;
19778;SDS011;10049;59.306;18.090;2022-11-20T13:49:07;0.23;;;0.23;;
19778;SDS011;10049;59.306;18.090;2022-11-20T13:51:37;0.20;;;0.20;;
19778;SDS011;10049;59.306;18.090;2022-11-20T13:56:53;0.80;;;0.60;;
19778;SDS011;10049;59.306;18.090;2022-11-20T13:59:27;1.40;;;0.40;;
19778;SDS011;10049;59.306;18.090;2022-11-20T14:01:56;0.43;;;0.40;;
19778;SDS011;10049;59.306;18.090;2022-11-20T14:04:26;0.30;;;0.30;;
19778;SDS011;10049;59.306;18.090;2022-11-20T14:06:54;0.97;;;0.70;;
19778;SDS011;10049;59.306;18.090;2022-11-20T14:09:25;0.57;;;0.50;;
19778;SDS011;10049;59.306;18.090;2022-11-20T14:11:52;0.50;;;0.37;;
19778;SDS011;10049;59.306;18.090;2022-11-20T14:14:20;1.70;;;0.50;;
19778;SDS011;10049;59.306;18.090;2022-11-20T14:16:48;0.40;;;0.40;;
19778;SDS011;10049;59.306;18.090;2022-11-20T14:19:21;0.80;;;0.40;;
19778;SDS011;10049;59.306;18.090;2022-11-20T14:21:53;0.40;;;0.40;;
19778;SDS011;10049;59.306;18.090;2022-11-20T14:24:20;0.70;;;0.40;;
19778;SDS011;10049;59.306;18.090;2022-11-20T14:26:48;0.50;;;0.50;;
19778;SDS011;10049;59.306;18.090;2022-11-20T14:29:17;1.50;;;0.63;;
19778;SDS011;10049;59.306;18.090;2022-11-20T14:31:45;0.27;;;0.27;;
19778;SDS011;10049;59.306;18.090;2022-11-20T14:34:14;0.83;;;0.40;;
19778;SDS011;10049;59.306;18.090;2022-11-20T14:36:42;0.80;;;0.33;;
19778;SDS011;10049;59.306;18.090;2022-11-20T14:39:12;0.30;;;0.30;;
19778;SDS011;10049;59.306;18.090;2022-11-20T14:41:49;0.50;;;0.40;;
19778;SDS011;10049;59.306;18.090;2022-11-20T14:44:17;0.40;;;0.40;;
19778;SDS011;10049;59.306;18.090;2022-11-20T14:46:44;0.70;;;0.60;;
19778;SDS011;10049;59.306;18.090;2022-11-20T14:49:12;0.60;;;0.50;;
19778;SDS011;10049;59.306;18.090;2022-11-20T14:51:39;0.40;;;0.40;;
19778;SDS011;10049;59.306;18.090;2022-11-20T14:54:08;0.40;;;0.40;;
19778;SDS011;10049;59.306;18.090;2022-11-20T14:56:37;0.90;;;0.47;;
19778;SDS011;10049;59.306;18.090;2022-11-20T14:59:05;0.77;;;0.53;;
19778;SDS011;10049;59.306;18.090;2022-11-20T15:01:33;0.50;;;0.50;;